sensor_id;sensor_type;location;lat;lon;timestamp;temperature;humidity
3758;DHT22;1894;51.038;13.692;2024-03-23T00:55:34;9.90;99.90
3758;DHT22;1894;51.038;13.692;2024-03-23T00:58:00;9.80;99.90
3758;DHT22;1894;51.038;13.692;2024-03-23T01:00:26;9.80;99.90
3758;DHT22;1894;51.038;13.692;2024-03-23T01:02:52;9.80;99.90
3758;DHT22;1894;51.038;13.692;2024-03-23T01:05:18;9.80;99.90
3758;DHT22;1894;51.038;13.692;2024-03-23T01:07:44;9.90;99.90
3758;DHT22;1894;51.038;13.692;2024-03-23T01:10:10;10.00;99.90
3758;DHT22;1894;51.038;13.692;2024-03-23T01:12:36;9.90;99.90
3758;DHT22;1894;51.038;13.692;2024-03-23T01:15:02;9.90;99.90
3758;DHT22;1894;51.038;13.692;2024-03-23T01:17:29;9.90;99.90
3758;DHT22;1894;51.038;13.692;2024-03-23T01:19:55;9.70;99.90
3758;DHT22;1894;51.038;13.692;2024-03-23T01:22:21;9.60;99.90
3758;DHT22;1894;51.038;13.692;2024-03-23T01:24:47;9.40;99.90
3758;DHT22;1894;51.038;13.692;2024-03-23T01:27:13;9.40;99.90
3758;DHT22;1894;51.038;13.692;2024-03-23T01:29:39;9.40;99.90
3758;DHT22;1894;51.038;13.692;2024-03-23T01:32:05;9.30;99.90
3758;DHT22;1894;51.038;13.692;2024-03-23T01:34:32;9.30;99.90
3758;DHT22;1894;51.038;13.692;2024-03-23T01:36:59;9.30;99.90
3758;DHT22;1894;51.038;13.692;2024-03-23T01:39:25;9.30;99.90
3758;DHT22;1894;51.038;13.692;2024-03-23T01:41:51;9.20;99.90
3758;DHT22;1894;51.038;13.692;2024-03-23T01:44:17;9.20;99.90
3758;DHT22;1894;51.038;13.692;2024-03-23T01:46:44;9.10;99.90
3758;DHT22;1894;51.038;13.692;2024-03-23T01:49:10;9.10;99.90
3758;DHT22;1894;51.038;13.692;2024-03-23T01:51:37;9.00;99.90
3758;DHT22;1894;51.038;13.692;2024-03-23T01:54:04;9.00;99.90
3758;DHT22;1894;51.038;13.692;2024-03-23T01:56:33;9.00;99.90
3758;DHT22;1894;51.038;13.692;2024-03-23T01:59:10;9.00;99.90
3758;DHT22;1894;51.038;13.692;2024-03-23T02:01:36;9.10;99.90
3758;DHT22;1894;51.038;13.692;2024-03-23T02:04:02;9.10;99.90
3758;DHT22;1894;51.038;13.692;2024-03-23T02:06:28;9.20;99.90
3758;DHT22;1894;51.038;13.692;2024-03-23T02:08:55;9.20;99.90
3758;DHT22;1894;51.038;13.692;2024-03-23T02:11:21;9.20;99.90
3758;DHT22;1894;51.038;13.692;2024-03-23T02:13:47;9.30;99.90
3758;DHT22;1894;51.038;13.692;2024-03-23T02:16:13;9.30;99.90
3758;DHT22;1894;51.038;13.692;2024-03-23T02:18:39;9.40;99.90
3758;DHT22;1894;51.038;13.692;2024-03-23T02:21:05;9.30;99.90
3758;DHT22;1894;51.038;13.692;2024-03-23T02:23:31;9.30;99.90
3758;DHT22;1894;51.038;13.692;2024-03-23T02:25:57;9.40;99.90
3758;DHT22;1894;51.038;13.692;2024-03-23T02:28:23;9.30;99.90
3758;DHT22;1894;51.038;13.692;2024-03-23T02:30:49;9.40;99.90
3758;DHT22;1894;51.038;13.692;2024-03-23T02:33:16;9.50;99.90
3758;DHT22;1894;51.038;13.692;2024-03-23T02:35:43;9.60;99.90
3758;DHT22;1894;51.038;13.692;2024-03-23T02:38:11;9.70;99.90
3758;DHT22;1894;51.038;13.692;2024-03-23T02:40:37;9.70;99.90
3758;DHT22;1894;51.038;13.692;2024-03-23T02:43:03;9.80;99.90
3758;DHT22;1894;51.038;13.692;2024-03-23T02:45:30;9.80;99.90
3758;DHT22;1894;51.038;13.692;2024-03-23T02:47:56;9.90;99.90
3758;DHT22;1894;51.038;13.692;2024-03-23T02:50:23;9.90;99.90
3758;DHT22;1894;51.038;13.692;2024-03-23T02:52:49;9.80;99.90
3758;DHT22;1894;51.038;13.692;2024-03-23T02:55:15;9.70;99.90
3758;DHT22;1894;51.038;13.692;2024-03-23T02:57:41;9.80;99.90
3758;DHT22;1894;51.038;13.692;2024-03-23T03:00:08;9.70;99.90
3758;DHT22;1894;51.038;13.692;2024-03-23T03:02:34;9.70;99.90
3758;DHT22;1894;51.038;13.692;2024-03-23T03:05:01;9.80;99.90
3758;DHT22;1894;51.038;13.692;2024-03-23T03:07:27;9.80;99.90
3758;DHT22;1894;51.038;13.692;2024-03-23T03:09:53;9.80;99.90
3758;DHT22;1894;51.038;13.692;2024-03-23T03:12:19;9.80;99.90
3758;DHT22;1894;51.038;13.692;2024-03-23T03:14:45;9.80;99.90
3758;DHT22;1894;51.038;13.692;2024-03-23T03:17:11;9.80;99.90
3758;DHT22;1894;51.038;13.692;2024-03-23T03:19:37;9.80;99.90
3758;DHT22;1894;51.038;13.692;2024-03-23T03:22:03;9.80;99.90
3758;DHT22;1894;51.038;13.692;2024-03-23T03:24:30;9.80;99.90
3758;DHT22;1894;51.038;13.692;2024-03-23T03:26:56;9.80;99.90
3758;DHT22;1894;51.038;13.692;2024-03-23T03:29:24;9.70;99.90
3758;DHT22;1894;51.038;13.692;2024-03-23T03:31:50;9.80;99.90
3758;DHT22;1894;51.038;13.692;2024-03-23T03:34:16;9.80;99.90
3758;DHT22;1894;51.038;13.692;2024-03-23T03:36:42;9.90;99.90
3758;DHT22;1894;51.038;13.692;2024-03-23T03:39:08;9.80;99.90
3758;DHT22;1894;51.038;13.692;2024-03-23T03:41:34;9.90;99.90
3758;DHT22;1894;51.038;13.692;2024-03-23T03:44:00;9.90;99.90
3758;DHT22;1894;51.038;13.692;2024-03-23T03:46:28;10.00;99.90
3758;DHT22;1894;51.038;13.692;2024-03-23T03:48:54;9.90;99.90
3758;DHT22;1894;51.038;13.692;2024-03-23T03:51:20;9.80;99.90
3758;DHT22;1894;51.038;13.692;2024-03-23T03:53:46;9.70;99.90
3758;DHT22;1894;51.038;13.692;2024-03-23T03:56:13;9.70;99.90
3758;DHT22;1894;51.038;13.692;2024-03-23T03:58:39;9.80;99.90
3758;DHT22;1894;51.038;13.692;2024-03-23T04:01:05;9.70;99.90
3758;DHT22;1894;51.038;13.692;2024-03-23T04:03:32;9.70;99.90
3758;DHT22;1894;51.038;13.692;2024-03-23T04:05:58;9.70;99.90
3758;DHT22;1894;51.038;13.692;2024-03-23T04:08:24;9.70;99.90
3758;DHT22;1894;51.038;13.692;2024-03-23T04:10:50;9.60;99.90
3758;DHT22;1894;51.038;13.692;2024-03-23T04:13:16;9.50;99.90
3758;DHT22;1894;51.038;13.692;2024-03-23T04:15:42;9.30;99.90
3758;DHT22;1894;51.038;13.692;2024-03-23T04:18:08;9.20;99.90
3758;DHT22;1894;51.038;13.692;2024-03-23T04:20:34;9.10;99.90
3758;DHT22;1894;51.038;13.692;2024-03-23T04:23:01;9.00;99.90
3758;DHT22;1894;51.038;13.692;2024-03-23T04:25:27;8.90;99.90
3758;DHT22;1894;51.038;13.692;2024-03-23T04:27:53;8.80;99.90
3758;DHT22;1894;51.038;13.692;2024-03-23T04:30:19;8.70;99.90
3758;DHT22;1894;51.038;13.692;2024-03-23T04:32:46;8.60;99.90
3758;DHT22;1894;51.038;13.692;2024-03-23T04:35:13;8.60;99.90
3758;DHT22;1894;51.038;13.692;2024-03-23T04:37:39;8.50;99.90
3758;DHT22;1894;51.038;13.692;2024-03-23T04:40:08;8.50;99.90
3758;DHT22;1894;51.038;13.692;2024-03-23T04:42:35;8.50;99.90
3758;DHT22;1894;51.038;13.692;2024-03-23T04:45:01;8.50;99.90
3758;DHT22;1894;51.038;13.692;2024-03-23T04:47:27;8.40;99.90
3758;DHT22;1894;51.038;13.692;2024-03-23T04:49:54;8.50;99.90
3758;DHT22;1894;51.038;13.692;2024-03-23T04:52:21;8.70;99.90
3758;DHT22;1894;51.038;13.692;2024-03-23T04:54:47;8.80;99.90
3758;DHT22;1894;51.038;13.692;2024-03-23T04:57:13;8.90;99.90
3758;DHT22;1894;51.038;13.692;2024-03-23T04:59:46;9.00;99.90
3758;DHT22;1894;51.038;13.692;2024-03-23T05:02:13;8.90;99.90
3758;DHT22;1894;51.038;13.692;2024-03-23T05:04:41;8.80;99.90
3758;DHT22;1894;51.038;13.692;2024-03-23T05:07:07;8.70;99.90
3758;DHT22;1894;51.038;13.692;2024-03-23T05:09:33;8.80;99.90
3758;DHT22;1894;51.038;13.692;2024-03-23T05:12:00;8.80;99.90
3758;DHT22;1894;51.038;13.692;2024-03-23T05:14:26;8.80;99.90
3758;DHT22;1894;51.038;13.692;2024-03-23T05:16:53;8.80;99.90
3758;DHT22;1894;51.038;13.692;2024-03-23T05:19:19;8.80;99.90
3758;DHT22;1894;51.038;13.692;2024-03-23T05:21:46;8.90;99.90
3758;DHT22;1894;51.038;13.692;2024-03-23T05:24:12;9.00;99.90
3758;DHT22;1894;51.038;13.692;2024-03-23T05:26:38;9.20;99.90
3758;DHT22;1894;51.038;13.692;2024-03-23T05:29:04;9.40;99.90
3758;DHT22;1894;51.038;13.692;2024-03-23T05:31:32;9.40;99.90
3758;DHT22;1894;51.038;13.692;2024-03-23T05:34:01;9.60;99.90
3758;DHT22;1894;51.038;13.692;2024-03-23T05:36:28;9.60;99.90
3758;DHT22;1894;51.038;13.692;2024-03-23T05:38:54;9.80;99.90
3758;DHT22;1894;51.038;13.692;2024-03-23T05:41:20;9.90;99.90
3758;DHT22;1894;51.038;13.692;2024-03-23T05:43:48;9.80;99.90
3758;DHT22;1894;51.038;13.692;2024-03-23T05:46:14;9.80;99.90
3758;DHT22;1894;51.038;13.692;2024-03-23T05:48:43;9.80;99.90
3758;DHT22;1894;51.038;13.692;2024-03-23T05:51:12;9.90;99.90
3758;DHT22;1894;51.038;13.692;2024-03-23T05:53:39;9.90;99.90
3758;DHT22;1894;51.038;13.692;2024-03-23T05:56:05;9.90;99.90
3758;DHT22;1894;51.038;13.692;2024-03-23T05:58:32;9.90;99.90
3758;DHT22;1894;51.038;13.692;2024-03-23T06:00:59;10.10;99.90
3758;DHT22;1894;51.038;13.692;2024-03-23T06:03:27;10.20;99.90
3758;DHT22;1894;51.038;13.692;2024-03-23T06:05:54;10.10;99.90
3758;DHT22;1894;51.038;13.692;2024-03-23T06:08:21;10.10;99.90
3758;DHT22;1894;51.038;13.692;2024-03-23T06:10:48;10.00;99.90
3758;DHT22;1894;51.038;13.692;2024-03-23T06:13:14;10.00;99.90
3758;DHT22;1894;51.038;13.692;2024-03-23T06:15:41;9.90;99.90
3758;DHT22;1894;51.038;13.692;2024-03-23T06:18:07;9.90;99.90
3758;DHT22;1894;51.038;13.692;2024-03-23T06:20:34;9.90;99.90
3758;DHT22;1894;51.038;13.692;2024-03-23T06:23:01;9.80;99.90
3758;DHT22;1894;51.038;13.692;2024-03-23T06:25:28;9.80;99.90
3758;DHT22;1894;51.038;13.692;2024-03-23T06:27:54;9.80;99.90
3758;DHT22;1894;51.038;13.692;2024-03-23T06:30:20;9.80;99.90
3758;DHT22;1894;51.038;13.692;2024-03-23T06:32:46;9.80;99.90
3758;DHT22;1894;51.038;13.692;2024-03-23T06:35:12;9.90;99.90
3758;DHT22;1894;51.038;13.692;2024-03-23T06:37:38;10.00;99.90
3758;DHT22;1894;51.038;13.692;2024-03-23T06:40:07;10.10;99.90
3758;DHT22;1894;51.038;13.692;2024-03-23T06:42:36;10.10;99.90
3758;DHT22;1894;51.038;13.692;2024-03-23T06:45:02;10.20;99.90
3758;DHT22;1894;51.038;13.692;2024-03-23T06:47:30;10.10;99.90
3758;DHT22;1894;51.038;13.692;2024-03-23T06:49:57;9.90;99.90
3758;DHT22;1894;51.038;13.692;2024-03-23T06:52:23;9.90;99.90
3758;DHT22;1894;51.038;13.692;2024-03-23T06:54:49;9.90;99.90
3758;DHT22;1894;51.038;13.692;2024-03-23T06:57:15;10.00;99.90
3758;DHT22;1894;51.038;13.692;2024-03-23T06:59:41;10.00;99.90
3758;DHT22;1894;51.038;13.692;2024-03-23T07:02:07;9.90;99.90
3758;DHT22;1894;51.038;13.692;2024-03-23T07:04:39;9.80;99.90
3758;DHT22;1894;51.038;13.692;2024-03-23T07:07:05;9.90;99.90
3758;DHT22;1894;51.038;13.692;2024-03-23T07:09:32;9.90;99.90
3758;DHT22;1894;51.038;13.692;2024-03-23T07:11:58;9.90;99.90
3758;DHT22;1894;51.038;13.692;2024-03-23T07:14:24;10.00;99.90
3758;DHT22;1894;51.038;13.692;2024-03-23T07:16:50;10.00;99.90
3758;DHT22;1894;51.038;13.692;2024-03-23T07:19:17;10.00;99.90
3758;DHT22;1894;51.038;13.692;2024-03-23T07:21:44;10.10;99.90
3758;DHT22;1894;51.038;13.692;2024-03-23T07:24:11;10.20;99.90
3758;DHT22;1894;51.038;13.692;2024-03-23T07:26:37;10.20;99.90
3758;DHT22;1894;51.038;13.692;2024-03-23T07:29:04;10.20;99.90
3758;DHT22;1894;51.038;13.692;2024-03-23T07:31:30;10.20;99.90
3758;DHT22;1894;51.038;13.692;2024-03-23T07:33:56;10.30;99.90
3758;DHT22;1894;51.038;13.692;2024-03-23T07:36:22;10.30;99.90
3758;DHT22;1894;51.038;13.692;2024-03-23T07:38:49;10.30;99.90
3758;DHT22;1894;51.038;13.692;2024-03-23T07:41:16;10.10;99.90
3758;DHT22;1894;51.038;13.692;2024-03-23T07:43:43;10.30;99.90
3758;DHT22;1894;51.038;13.692;2024-03-23T07:46:10;10.40;99.90
3758;DHT22;1894;51.038;13.692;2024-03-23T07:48:38;10.60;99.90
3758;DHT22;1894;51.038;13.692;2024-03-23T07:51:17;10.50;99.90
3758;DHT22;1894;51.038;13.692;2024-03-23T07:53:47;10.70;99.90
3758;DHT22;1894;51.038;13.692;2024-03-23T07:56:14;10.80;99.90
3758;DHT22;1894;51.038;13.692;2024-03-23T07:58:41;10.70;99.90
3758;DHT22;1894;51.038;13.692;2024-03-23T08:01:12;11.00;99.90
3758;DHT22;1894;51.038;13.692;2024-03-23T08:03:44;11.20;99.90
3758;DHT22;1894;51.038;13.692;2024-03-23T08:08:40;11.00;99.90
3758;DHT22;1894;51.038;13.692;2024-03-23T08:11:08;11.00;99.90
3758;DHT22;1894;51.038;13.692;2024-03-23T08:13:35;10.90;99.90
3758;DHT22;1894;51.038;13.692;2024-03-23T08:16:02;11.00;99.90
3758;DHT22;1894;51.038;13.692;2024-03-23T08:18:30;11.30;99.90
3758;DHT22;1894;51.038;13.692;2024-03-23T08:21:01;10.90;99.90
3758;DHT22;1894;51.038;13.692;2024-03-23T08:23:29;11.00;99.90
3758;DHT22;1894;51.038;13.692;2024-03-23T08:26:04;11.40;99.90
3758;DHT22;1894;51.038;13.692;2024-03-23T08:28:31;11.70;99.90
3758;DHT22;1894;51.038;13.692;2024-03-23T08:31:01;12.20;99.90
3758;DHT22;1894;51.038;13.692;2024-03-23T08:33:31;12.50;99.90
3758;DHT22;1894;51.038;13.692;2024-03-23T08:35:59;12.60;99.90
3758;DHT22;1894;51.038;13.692;2024-03-23T08:38:27;12.50;99.90
3758;DHT22;1894;51.038;13.692;2024-03-23T08:41:00;12.70;99.90
3758;DHT22;1894;51.038;13.692;2024-03-23T08:43:29;12.80;99.90
3758;DHT22;1894;51.038;13.692;2024-03-23T08:48:40;12.20;99.90
3758;DHT22;1894;51.038;13.692;2024-03-23T08:51:12;11.90;99.90
3758;DHT22;1894;51.038;13.692;2024-03-23T08:53:39;12.00;99.90
3758;DHT22;1894;51.038;13.692;2024-03-23T08:56:07;12.30;99.90
3758;DHT22;1894;51.038;13.692;2024-03-23T08:58:34;12.40;99.90
3758;DHT22;1894;51.038;13.692;2024-03-23T09:01:10;12.50;99.90
3758;DHT22;1894;51.038;13.692;2024-03-23T09:03:39;12.90;99.90
3758;DHT22;1894;51.038;13.692;2024-03-23T09:06:13;13.00;99.90
3758;DHT22;1894;51.038;13.692;2024-03-23T09:08:40;13.20;99.90
3758;DHT22;1894;51.038;13.692;2024-03-23T09:11:08;13.30;99.90
3758;DHT22;1894;51.038;13.692;2024-03-23T09:13:36;13.20;99.90
3758;DHT22;1894;51.038;13.692;2024-03-23T09:16:04;13.00;99.90
3758;DHT22;1894;51.038;13.692;2024-03-23T09:18:32;12.60;99.90
3758;DHT22;1894;51.038;13.692;2024-03-23T09:20:59;12.60;99.90
3758;DHT22;1894;51.038;13.692;2024-03-23T09:23:25;13.00;99.90
3758;DHT22;1894;51.038;13.692;2024-03-23T09:25:52;13.20;99.90
3758;DHT22;1894;51.038;13.692;2024-03-23T09:28:18;13.30;99.90
3758;DHT22;1894;51.038;13.692;2024-03-23T09:30:44;13.50;99.90
3758;DHT22;1894;51.038;13.692;2024-03-23T09:33:11;13.40;99.90
3758;DHT22;1894;51.038;13.692;2024-03-23T09:35:41;13.30;99.90
3758;DHT22;1894;51.038;13.692;2024-03-23T09:38:09;13.10;99.90
3758;DHT22;1894;51.038;13.692;2024-03-23T09:40:44;13.00;99.90
3758;DHT22;1894;51.038;13.692;2024-03-23T09:43:10;12.30;99.90
3758;DHT22;1894;51.038;13.692;2024-03-23T09:45:40;11.80;99.90
3758;DHT22;1894;51.038;13.692;2024-03-23T09:48:10;11.10;99.90
3758;DHT22;1894;51.038;13.692;2024-03-23T09:50:38;10.90;99.90
3758;DHT22;1894;51.038;13.692;2024-03-23T09:53:08;10.40;99.90
3758;DHT22;1894;51.038;13.692;2024-03-23T09:55:40;10.00;99.90
3758;DHT22;1894;51.038;13.692;2024-03-23T09:58:12;9.60;99.90
3758;DHT22;1894;51.038;13.692;2024-03-23T10:00:39;8.80;99.90
3758;DHT22;1894;51.038;13.692;2024-03-23T10:03:05;8.60;99.90
3758;DHT22;1894;51.038;13.692;2024-03-23T10:05:32;8.50;99.90
3758;DHT22;1894;51.038;13.692;2024-03-23T10:10:40;8.10;99.90
3758;DHT22;1894;51.038;13.692;2024-03-23T10:13:09;7.80;99.90
3758;DHT22;1894;51.038;13.692;2024-03-23T10:15:36;7.60;99.90
3758;DHT22;1894;51.038;13.692;2024-03-23T10:18:18;7.30;99.90
3758;DHT22;1894;51.038;13.692;2024-03-23T10:21:14;7.00;99.90
3758;DHT22;1894;51.038;13.692;2024-03-23T10:23:41;6.80;99.90
3758;DHT22;1894;51.038;13.692;2024-03-23T10:28:59;6.80;99.90
3758;DHT22;1894;51.038;13.692;2024-03-23T10:31:27;6.80;99.90
3758;DHT22;1894;51.038;13.692;2024-03-23T10:33:54;6.50;99.90
3758;DHT22;1894;51.038;13.692;2024-03-23T10:36:22;6.40;99.90
3758;DHT22;1894;51.038;13.692;2024-03-23T10:38:51;6.20;99.90
3758;DHT22;1894;51.038;13.692;2024-03-23T10:41:18;5.90;99.90
3758;DHT22;1894;51.038;13.692;2024-03-23T10:43:46;6.10;99.90
3758;DHT22;1894;51.038;13.692;2024-03-23T10:46:13;6.40;99.90
3758;DHT22;1894;51.038;13.692;2024-03-23T10:48:42;6.20;99.90
3758;DHT22;1894;51.038;13.692;2024-03-23T10:51:10;6.10;99.90
3758;DHT22;1894;51.038;13.692;2024-03-23T10:53:37;5.90;99.90
3758;DHT22;1894;51.038;13.692;2024-03-23T10:56:04;5.80;99.90
3758;DHT22;1894;51.038;13.692;2024-03-23T10:58:49;5.90;99.90
3758;DHT22;1894;51.038;13.692;2024-03-23T11:01:17;6.10;99.90
3758;DHT22;1894;51.038;13.692;2024-03-23T11:03:47;6.10;99.90
3758;DHT22;1894;51.038;13.692;2024-03-23T11:06:35;6.00;99.90
3758;DHT22;1894;51.038;13.692;2024-03-23T11:09:01;6.10;99.90
3758;DHT22;1894;51.038;13.692;2024-03-23T11:11:27;5.80;99.90
3758;DHT22;1894;51.038;13.692;2024-03-23T11:13:59;5.80;99.90
3758;DHT22;1894;51.038;13.692;2024-03-23T11:16:28;5.80;99.90
3758;DHT22;1894;51.038;13.692;2024-03-23T11:19:36;5.60;99.90
3758;DHT22;1894;51.038;13.692;2024-03-23T11:22:04;6.20;99.90
3758;DHT22;1894;51.038;13.692;2024-03-23T11:24:37;6.70;99.90
3758;DHT22;1894;51.038;13.692;2024-03-23T11:27:16;7.10;99.90
3758;DHT22;1894;51.038;13.692;2024-03-23T11:29:42;7.00;99.90
3758;DHT22;1894;51.038;13.692;2024-03-23T11:32:10;7.10;99.90
3758;DHT22;1894;51.038;13.692;2024-03-23T11:34:37;6.60;99.90
3758;DHT22;1894;51.038;13.692;2024-03-23T11:37:05;6.50;99.90
3758;DHT22;1894;51.038;13.692;2024-03-23T11:39:31;6.40;99.90
3758;DHT22;1894;51.038;13.692;2024-03-23T11:41:58;6.40;99.90
3758;DHT22;1894;51.038;13.692;2024-03-23T11:44:27;6.40;99.90
3758;DHT22;1894;51.038;13.692;2024-03-23T11:46:53;6.50;99.90
3758;DHT22;1894;51.038;13.692;2024-03-23T11:51:49;6.50;99.90
3758;DHT22;1894;51.038;13.692;2024-03-23T11:54:20;6.50;99.90
3758;DHT22;1894;51.038;13.692;2024-03-23T11:57:04;6.70;99.90
3758;DHT22;1894;51.038;13.692;2024-03-23T11:59:34;6.80;99.90
3758;DHT22;1894;51.038;13.692;2024-03-23T12:02:09;6.90;99.90
3758;DHT22;1894;51.038;13.692;2024-03-23T12:04:41;7.20;99.90
3758;DHT22;1894;51.038;13.692;2024-03-23T12:07:15;8.30;99.90
3758;DHT22;1894;51.038;13.692;2024-03-23T12:09:45;9.20;99.90
3758;DHT22;1894;51.038;13.692;2024-03-23T12:12:16;8.40;99.90
3758;DHT22;1894;51.038;13.692;2024-03-23T12:14:44;8.70;99.90
3758;DHT22;1894;51.038;13.692;2024-03-23T12:17:12;8.70;99.90
3758;DHT22;1894;51.038;13.692;2024-03-23T12:19:39;8.20;99.90
3758;DHT22;1894;51.038;13.692;2024-03-23T12:22:07;8.20;99.90
3758;DHT22;1894;51.038;13.692;2024-03-23T12:24:34;8.10;99.90
3758;DHT22;1894;51.038;13.692;2024-03-23T12:27:04;8.40;99.90
3758;DHT22;1894;51.038;13.692;2024-03-23T12:29:32;9.60;99.90
3758;DHT22;1894;51.038;13.692;2024-03-23T12:32:00;9.60;99.90
3758;DHT22;1894;51.038;13.692;2024-03-23T12:34:27;10.40;99.90
3758;DHT22;1894;51.038;13.692;2024-03-23T12:36:54;10.40;99.90
3758;DHT22;1894;51.038;13.692;2024-03-23T12:39:20;9.70;99.90
3758;DHT22;1894;51.038;13.692;2024-03-23T12:41:47;9.50;99.90
3758;DHT22;1894;51.038;13.692;2024-03-23T12:44:14;10.60;99.90
3758;DHT22;1894;51.038;13.692;2024-03-23T12:46:41;11.70;99.90
3758;DHT22;1894;51.038;13.692;2024-03-23T12:49:08;11.70;99.90
3758;DHT22;1894;51.038;13.692;2024-03-23T12:51:34;9.40;99.90
3758;DHT22;1894;51.038;13.692;2024-03-23T12:54:00;8.60;99.90
3758;DHT22;1894;51.038;13.692;2024-03-23T12:56:26;8.20;99.90
3758;DHT22;1894;51.038;13.692;2024-03-23T12:58:56;8.00;99.90
3758;DHT22;1894;51.038;13.692;2024-03-23T13:01:23;7.80;99.90
3758;DHT22;1894;51.038;13.692;2024-03-23T13:03:50;7.70;99.90
3758;DHT22;1894;51.038;13.692;2024-03-23T13:06:17;7.60;99.90
3758;DHT22;1894;51.038;13.692;2024-03-23T13:08:47;7.30;99.90
3758;DHT22;1894;51.038;13.692;2024-03-23T13:11:15;7.10;99.90
3758;DHT22;1894;51.038;13.692;2024-03-23T13:13:42;7.10;99.90
3758;DHT22;1894;51.038;13.692;2024-03-23T13:16:08;7.00;99.90
3758;DHT22;1894;51.038;13.692;2024-03-23T13:18:34;7.20;99.90
3758;DHT22;1894;51.038;13.692;2024-03-23T13:21:00;7.30;99.90
3758;DHT22;1894;51.038;13.692;2024-03-23T13:23:26;7.30;99.90
3758;DHT22;1894;51.038;13.692;2024-03-23T13:25:54;7.60;99.90
3758;DHT22;1894;51.038;13.692;2024-03-23T13:28:24;8.00;99.90
3758;DHT22;1894;51.038;13.692;2024-03-23T13:33:17;8.20;99.90
3758;DHT22;1894;51.038;13.692;2024-03-23T13:35:53;8.60;99.90
3758;DHT22;1894;51.038;13.692;2024-03-23T13:38:20;8.20;99.90
3758;DHT22;1894;51.038;13.692;2024-03-23T13:41:04;8.30;99.90
3758;DHT22;1894;51.038;13.692;2024-03-23T13:43:32;8.10;99.90
3758;DHT22;1894;51.038;13.692;2024-03-23T13:45:59;8.30;99.90
3758;DHT22;1894;51.038;13.692;2024-03-23T13:48:26;9.80;99.90
3758;DHT22;1894;51.038;13.692;2024-03-23T13:51:02;13.00;99.90
3758;DHT22;1894;51.038;13.692;2024-03-23T13:53:29;17.40;99.90
3758;DHT22;1894;51.038;13.692;2024-03-23T13:55:56;18.10;91.90
3758;DHT22;1894;51.038;13.692;2024-03-23T13:58:22;15.20;92.20
3758;DHT22;1894;51.038;13.692;2024-03-23T14:00:52;14.70;94.20
3758;DHT22;1894;51.038;13.692;2024-03-23T14:03:18;14.50;94.70
3758;DHT22;1894;51.038;13.692;2024-03-23T14:05:44;14.00;95.30
3758;DHT22;1894;51.038;13.692;2024-03-23T14:08:11;13.20;94.50
3758;DHT22;1894;51.038;13.692;2024-03-23T14:10:40;11.70;96.20
3758;DHT22;1894;51.038;13.692;2024-03-23T14:13:07;10.90;99.40
3758;DHT22;1894;51.038;13.692;2024-03-23T14:15:33;10.70;99.90
3758;DHT22;1894;51.038;13.692;2024-03-23T14:17:59;10.00;99.90
3758;DHT22;1894;51.038;13.692;2024-03-23T14:20:26;9.60;99.90
3758;DHT22;1894;51.038;13.692;2024-03-23T14:22:52;10.30;99.90
3758;DHT22;1894;51.038;13.692;2024-03-23T14:25:19;10.90;99.90
3758;DHT22;1894;51.038;13.692;2024-03-23T14:27:45;11.00;99.90
3758;DHT22;1894;51.038;13.692;2024-03-23T14:30:12;10.50;99.90
3758;DHT22;1894;51.038;13.692;2024-03-23T14:32:39;11.90;99.90
3758;DHT22;1894;51.038;13.692;2024-03-23T14:35:06;13.20;96.60
3758;DHT22;1894;51.038;13.692;2024-03-23T14:37:39;14.30;95.40
3758;DHT22;1894;51.038;13.692;2024-03-23T14:40:07;15.60;91.60
3758;DHT22;1894;51.038;13.692;2024-03-23T14:42:34;16.50;90.10
3758;DHT22;1894;51.038;13.692;2024-03-23T14:45:00;17.40;85.10
3758;DHT22;1894;51.038;13.692;2024-03-23T14:47:26;15.00;85.70
3758;DHT22;1894;51.038;13.692;2024-03-23T14:49:52;13.40;89.20
3758;DHT22;1894;51.038;13.692;2024-03-23T14:52:19;12.50;90.20
3758;DHT22;1894;51.038;13.692;2024-03-23T14:54:45;12.50;91.40
3758;DHT22;1894;51.038;13.692;2024-03-23T14:57:12;12.20;92.30
3758;DHT22;1894;51.038;13.692;2024-03-23T14:59:38;13.10;92.70
3758;DHT22;1894;51.038;13.692;2024-03-23T15:02:09;13.00;92.00
3758;DHT22;1894;51.038;13.692;2024-03-23T15:04:35;12.50;92.20
3758;DHT22;1894;51.038;13.692;2024-03-23T15:07:01;12.30;93.20
3758;DHT22;1894;51.038;13.692;2024-03-23T15:09:28;12.20;93.40
3758;DHT22;1894;51.038;13.692;2024-03-23T15:11:54;11.80;93.90
3758;DHT22;1894;51.038;13.692;2024-03-23T15:14:23;11.50;93.70
3758;DHT22;1894;51.038;13.692;2024-03-23T15:16:50;11.00;95.10
3758;DHT22;1894;51.038;13.692;2024-03-23T15:19:16;10.80;95.20
3758;DHT22;1894;51.038;13.692;2024-03-23T15:21:43;10.60;96.10
3758;DHT22;1894;51.038;13.692;2024-03-23T15:24:10;11.20;96.70
3758;DHT22;1894;51.038;13.692;2024-03-23T15:26:37;10.90;96.00
3758;DHT22;1894;51.038;13.692;2024-03-23T15:29:03;10.50;96.80
3758;DHT22;1894;51.038;13.692;2024-03-23T15:31:37;10.60;97.40
3758;DHT22;1894;51.038;13.692;2024-03-23T15:34:03;10.30;97.90
3758;DHT22;1894;51.038;13.692;2024-03-23T15:36:30;10.10;98.00
3758;DHT22;1894;51.038;13.692;2024-03-23T15:38:57;9.50;99.90
3758;DHT22;1894;51.038;13.692;2024-03-23T15:41:23;9.60;99.90
3758;DHT22;1894;51.038;13.692;2024-03-23T15:43:51;9.50;99.90
3758;DHT22;1894;51.038;13.692;2024-03-23T15:46:17;9.40;99.90
3758;DHT22;1894;51.038;13.692;2024-03-23T15:48:44;9.30;99.90
3758;DHT22;1894;51.038;13.692;2024-03-23T15:51:13;9.20;99.90
3758;DHT22;1894;51.038;13.692;2024-03-23T15:53:40;9.20;99.90
3758;DHT22;1894;51.038;13.692;2024-03-23T15:56:06;9.00;99.90
3758;DHT22;1894;51.038;13.692;2024-03-23T15:58:33;8.80;99.90
3758;DHT22;1894;51.038;13.692;2024-03-23T16:01:02;8.70;99.90
3758;DHT22;1894;51.038;13.692;2024-03-23T16:03:37;8.70;99.90
3758;DHT22;1894;51.038;13.692;2024-03-23T16:06:06;8.60;99.90
3758;DHT22;1894;51.038;13.692;2024-03-23T16:08:36;8.60;99.90
3758;DHT22;1894;51.038;13.692;2024-03-23T16:11:03;8.60;99.90
3758;DHT22;1894;51.038;13.692;2024-03-23T16:13:31;8.60;99.90
3758;DHT22;1894;51.038;13.692;2024-03-23T16:16:04;8.70;99.90
3758;DHT22;1894;51.038;13.692;2024-03-23T16:18:34;8.80;99.90
3758;DHT22;1894;51.038;13.692;2024-03-23T16:21:02;9.00;99.90
3758;DHT22;1894;51.038;13.692;2024-03-23T16:23:31;8.80;99.90
3758;DHT22;1894;51.038;13.692;2024-03-23T16:25:58;8.40;99.90
3758;DHT22;1894;51.038;13.692;2024-03-23T16:28:26;8.30;99.90
3758;DHT22;1894;51.038;13.692;2024-03-23T16:31:00;8.10;99.90
3758;DHT22;1894;51.038;13.692;2024-03-23T16:33:32;7.90;99.90
3758;DHT22;1894;51.038;13.692;2024-03-23T16:36:04;7.60;99.90
3758;DHT22;1894;51.038;13.692;2024-03-23T16:38:36;7.50;99.90
3758;DHT22;1894;51.038;13.692;2024-03-23T16:41:10;7.10;99.90
3758;DHT22;1894;51.038;13.692;2024-03-23T16:43:44;7.00;99.90
3758;DHT22;1894;51.038;13.692;2024-03-23T16:46:12;7.00;99.90
3758;DHT22;1894;51.038;13.692;2024-03-23T16:48:41;7.00;99.90
3758;DHT22;1894;51.038;13.692;2024-03-23T16:51:09;6.90;99.90
3758;DHT22;1894;51.038;13.692;2024-03-23T16:53:37;7.00;99.90
3758;DHT22;1894;51.038;13.692;2024-03-23T16:56:07;7.10;99.90
3758;DHT22;1894;51.038;13.692;2024-03-23T16:58:35;6.90;99.90
3758;DHT22;1894;51.038;13.692;2024-03-23T17:01:07;6.90;99.90
3758;DHT22;1894;51.038;13.692;2024-03-23T17:03:49;6.80;99.90
3758;DHT22;1894;51.038;13.692;2024-03-23T17:06:17;6.80;99.90
3758;DHT22;1894;51.038;13.692;2024-03-23T17:08:49;6.80;99.90
3758;DHT22;1894;51.038;13.692;2024-03-23T17:11:15;6.70;99.90